createdAt,value
2023-04-28T04:09:53.890Z,6.76
2023-04-28T04:12:56.506Z,6.76
2023-04-28T04:15:58.933Z,6.35
2023-04-28T04:19:02.068Z,6.32
2023-04-28T04:22:04.352Z,6.62
2023-04-28T04:25:07.144Z,6.62
2023-04-28T04:28:09.931Z,6.50
2023-04-28T04:31:12.483Z,6.66
2023-04-28T04:34:14.954Z,6.90
2023-04-28T04:37:17.901Z,7.22
2023-04-28T04:40:20.822Z,7.34
2023-04-28T04:43:24.147Z,7.38
2023-04-28T04:46:26.878Z,7.48
2023-04-28T04:49:29.310Z,7.64
2023-04-28T04:52:31.466Z,7.62
2023-04-28T04:55:34.032Z,7.48
2023-04-28T04:58:37.044Z,7.80
2023-04-28T05:01:39.697Z,7.97
2023-04-28T05:04:41.979Z,7.97
2023-04-28T05:07:44.762Z,8.21
2023-04-28T05:10:46.981Z,8.37
2023-04-28T05:13:49.723Z,8.56
2023-04-28T05:16:52.128Z,8.70
2023-04-28T05:19:56.098Z,8.97
2023-04-28T05:22:58.257Z,9.17
2023-04-28T05:26:02.957Z,9.51
2023-04-28T05:29:05.384Z,9.61
2023-04-28T05:32:07.917Z,9.81
2023-04-28T05:35:10.196Z,9.95
2023-04-28T05:38:12.622Z,10.07
2023-04-28T05:41:14.851Z,10.47
2023-04-28T05:44:17.574Z,10.62
2023-04-28T05:47:20.711Z,10.59
2023-04-28T05:50:23.137Z,10.81
2023-04-28T05:53:25.738Z,10.93
2023-04-28T05:56:28.476Z,11.05
2023-04-28T05:59:31.687Z,10.98
2023-04-28T06:02:34.303Z,10.86
2023-04-28T06:05:39.003Z,10.82
2023-04-28T06:08:42.071Z,11.10
2023-04-28T06:11:44.516Z,11.07
2023-04-28T06:14:46.655Z,11.07
2023-04-28T06:17:49.166Z,11.20
2023-04-28T06:20:51.575Z,11.28
2023-04-28T06:23:55.855Z,11.34
2023-04-28T06:26:58.072Z,11.39
2023-04-28T06:30:01.018Z,11.54
2023-04-28T06:33:03.260Z,11.70
2023-04-28T06:36:06.179Z,11.37
2023-04-28T06:39:08.350Z,11.45
2023-04-28T06:42:11.136Z,11.61
2023-04-28T06:45:15.146Z,11.85
2023-04-28T06:48:17.624Z,12.01
2023-04-28T06:51:19.733Z,12.12
2023-04-28T06:54:22.095Z,12.20
2023-04-28T06:57:24.198Z,12.29
2023-04-28T07:00:28.032Z,12.47
2023-04-28T07:03:30.467Z,12.38
2023-04-28T07:06:33.051Z,12.59
2023-04-28T07:09:35.848Z,12.75
2023-04-28T07:12:38.259Z,12.56
2023-04-28T07:15:40.602Z,12.85
2023-04-28T07:18:42.960Z,12.82
2023-04-28T07:21:46.093Z,12.97
2023-04-28T07:24:48.634Z,13.00
2023-04-28T07:27:50.874Z,13.02
2023-04-28T07:30:53.325Z,13.02
2023-04-28T07:33:55.476Z,13.08
2023-04-28T07:36:58.268Z,13.33
2023-04-28T07:40:00.553Z,13.08
2023-04-28T07:43:03.802Z,13.02
2023-04-28T07:46:08.248Z,13.18
2023-04-28T07:49:10.702Z,13.36
2023-04-28T07:52:12.977Z,13.33
2023-04-28T07:55:16.057Z,13.46
2023-04-28T07:58:18.300Z,13.46
2023-04-28T08:01:20.943Z,13.48
2023-04-28T08:04:23.810Z,13.78
2023-04-28T08:07:26.280Z,13.92
2023-04-28T08:10:28.895Z,14.20
2023-04-28T08:13:31.121Z,14.33
2023-04-28T08:16:36.618Z,14.18
2023-04-28T08:19:39.029Z,14.20
2023-04-28T08:22:42.059Z,14.10
2023-04-28T08:25:44.253Z,14.30
2023-04-28T08:28:46.932Z,14.54
2023-04-28T08:31:49.051Z,14.46
2023-04-28T08:34:51.440Z,14.85
2023-04-28T08:37:53.672Z,14.94
2023-04-28T08:40:56.209Z,15.04
2023-04-28T08:43:58.655Z,15.16
2023-04-28T08:47:03.454Z,15.06
2023-04-28T08:50:07.654Z,15.04
2023-04-28T08:53:12.786Z,15.13
2023-04-28T08:56:17.021Z,15.32
2023-04-28T08:59:19.826Z,15.38
2023-04-28T09:02:22.881Z,15.16
2023-04-28T09:05:25.790Z,15.39
2023-04-28T09:08:28.641Z,15.39
2023-04-28T09:11:31.240Z,15.21
2023-04-28T09:14:35.735Z,15.11
2023-04-28T09:17:51.076Z,15.11
2023-04-28T09:21:02.502Z,15.04
2023-04-28T09:24:05.249Z,15.02
2023-04-28T09:27:11.498Z,15.16
2023-04-28T09:30:14.496Z,15.18
2023-04-28T09:33:16.903Z,15.35
2023-04-28T09:36:32.602Z,15.52
2023-04-28T09:39:34.866Z,15.43
2023-04-28T09:42:41.833Z,15.65
2023-04-28T09:45:45.823Z,15.93
2023-04-28T09:48:48.354Z,15.90
2023-04-28T09:51:50.888Z,16.06
2023-04-28T09:54:57.534Z,15.94
2023-04-28T09:58:05.251Z,16.04
2023-04-28T10:01:11.677Z,15.96
2023-04-28T10:04:15.183Z,16.13
2023-04-28T10:07:20.597Z,16.30
2023-04-28T10:10:25.160Z,16.14
2023-04-28T10:13:27.741Z,15.93
2023-04-28T10:16:32.252Z,15.95
2023-04-28T10:19:35.243Z,16.07
2023-04-28T10:23:06.898Z,16.28
2023-04-28T10:26:14.576Z,16.21
2023-04-28T10:29:17.309Z,16.12
2023-04-28T10:32:26.406Z,16.32
2023-04-28T10:35:29.439Z,16.20
2023-04-28T10:38:32.144Z,16.26
2023-04-28T10:41:34.629Z,16.33
2023-04-28T10:44:36.758Z,16.27
2023-04-28T10:48:04.437Z,16.20
2023-04-28T10:51:07.262Z,16.49
2023-04-28T10:54:10.402Z,16.42
2023-04-28T10:57:19.412Z,16.61
2023-04-28T11:00:30.339Z,16.66
2023-04-28T11:03:47.520Z,16.77
2023-04-28T11:07:11.162Z,16.59
2023-04-28T11:10:13.349Z,16.56
2023-04-28T11:13:26.471Z,16.73
2023-04-28T11:16:28.890Z,16.76
2023-04-28T11:19:37.643Z,16.60
2023-04-28T11:22:40.575Z,16.69
2023-04-28T11:25:56.206Z,16.80
2023-04-28T11:28:58.880Z,16.79
2023-04-28T11:32:06.213Z,16.52
2023-04-28T11:35:09.862Z,16.52
2023-04-28T11:38:12.554Z,16.47
2023-04-28T11:41:14.972Z,16.61
2023-04-28T11:44:20.434Z,16.77
2023-04-28T11:47:30.309Z,16.62
2023-04-28T11:50:36.869Z,16.59
2023-04-28T11:53:45.941Z,16.68
2023-04-28T11:56:48.524Z,16.75
2023-04-28T11:59:51.266Z,16.80
2023-04-28T12:02:53.896Z,16.66
2023-04-28T12:05:57.135Z,16.61
2023-04-28T12:09:04.296Z,16.64
2023-04-28T12:12:11.869Z,16.75
2023-04-28T12:15:14.551Z,16.78
2023-04-28T12:18:19.491Z,16.61
2023-04-28T12:21:22.050Z,16.73
2023-04-28T12:24:26.104Z,16.80
2023-04-28T12:27:29.141Z,16.67
2023-04-28T12:30:34.197Z,16.51
2023-04-28T12:33:39.498Z,16.59
2023-04-28T12:36:41.887Z,16.81
2023-04-28T12:39:44.305Z,16.88
2023-04-28T12:42:47.131Z,16.93
2023-04-28T12:45:54.024Z,17.03
2023-04-28T12:48:57.071Z,17.00
2023-04-28T12:51:59.293Z,17.03
2023-04-28T12:55:02.508Z,17.01
2023-04-28T12:58:05.286Z,17.18
2023-04-28T13:01:08.306Z,17.20
2023-04-28T13:04:10.858Z,17.16
2023-04-28T13:07:14.222Z,17.36
2023-04-28T13:10:18.151Z,17.47
2023-04-28T13:13:20.588Z,17.48
2023-04-28T13:16:25.590Z,17.43
2023-04-28T13:19:28.652Z,17.30
2023-04-28T13:22:30.868Z,17.50
2023-04-28T13:25:33.357Z,17.61
2023-04-28T13:28:36.352Z,17.74
2023-04-28T13:31:38.833Z,17.67
2023-04-28T13:34:41.061Z,17.65
2023-04-28T13:37:45.974Z,17.66
2023-04-28T13:40:48.155Z,17.64
2023-04-28T13:43:50.561Z,17.58
2023-04-28T13:46:53.087Z,17.41
2023-04-28T13:49:55.440Z,17.42
2023-04-28T13:52:58.633Z,17.35
2023-04-28T13:56:01.747Z,17.24
2023-04-28T13:59:04.292Z,17.16
2023-04-28T14:02:09.384Z,17.46
2023-04-28T14:05:12.174Z,17.44
2023-04-28T14:08:14.591Z,17.58
2023-04-28T14:11:17.016Z,17.64
2023-04-28T14:14:19.141Z,17.60
2023-04-28T14:17:21.635Z,17.60
2023-04-28T14:20:23.740Z,17.58
2023-04-28T14:23:26.695Z,17.68
2023-04-28T14:26:28.955Z,17.72
2023-04-28T14:29:31.356Z,17.51
2023-04-28T14:32:33.492Z,17.57
2023-04-28T14:35:35.950Z,17.49
2023-04-28T14:38:40.094Z,17.52
2023-04-28T14:41:42.725Z,17.54
2023-04-28T14:44:44.919Z,17.61
2023-04-28T14:47:47.742Z,17.62
2023-04-28T14:50:53.612Z,17.67
2023-04-28T14:53:55.861Z,17.69
2023-04-28T14:56:58.643Z,17.62
2023-04-28T15:00:01.501Z,17.60
2023-04-28T15:03:04.240Z,17.66
2023-04-28T15:06:06.687Z,17.67
2023-04-28T15:09:08.782Z,17.50
2023-04-28T15:12:11.243Z,17.37
2023-04-28T15:15:13.371Z,17.34
2023-04-28T15:18:15.753Z,17.43
2023-04-28T15:21:17.998Z,17.48
2023-04-28T15:24:21.356Z,17.52
2023-04-28T15:27:23.839Z,17.45
2023-04-28T15:30:26.269Z,17.32
